sensor_id;sensor_type;location;lat;lon;timestamp;temperature;humidity
48994;DHT22;34804;49.214;12.276;2023-02-08T00:00:49;-3269.50;87.40
48994;DHT22;34804;49.214;12.276;2023-02-08T00:03:16;-3269.50;87.20
48994;DHT22;34804;49.214;12.276;2023-02-08T00:05:43;-3269.50;87.10
48994;DHT22;34804;49.214;12.276;2023-02-08T00:08:09;-3269.50;86.70
48994;DHT22;34804;49.214;12.276;2023-02-08T00:10:36;-3269.40;86.40
48994;DHT22;34804;49.214;12.276;2023-02-08T00:13:03;-3269.40;86.70
48994;DHT22;34804;49.214;12.276;2023-02-08T00:15:30;-3269.30;87.00
48994;DHT22;34804;49.214;12.276;2023-02-08T00:17:57;-3269.30;87.10
48994;DHT22;34804;49.214;12.276;2023-02-08T00:20:24;-3269.30;87.30
48994;DHT22;34804;49.214;12.276;2023-02-08T00:22:50;-3269.20;87.40
48994;DHT22;34804;49.214;12.276;2023-02-08T00:25:19;-3269.20;87.50
48994;DHT22;34804;49.214;12.276;2023-02-08T00:27:45;-3269.30;87.80
48994;DHT22;34804;49.214;12.276;2023-02-08T00:30:12;-3269.30;87.10
48994;DHT22;34804;49.214;12.276;2023-02-08T00:32:39;-3269.30;87.10
48994;DHT22;34804;49.214;12.276;2023-02-08T00:35:06;-3269.20;87.10
48994;DHT22;34804;49.214;12.276;2023-02-08T00:37:33;-3269.30;87.60
48994;DHT22;34804;49.214;12.276;2023-02-08T00:39:59;-3269.20;87.00
48994;DHT22;34804;49.214;12.276;2023-02-08T00:42:28;-3269.20;87.20
48994;DHT22;34804;49.214;12.276;2023-02-08T00:44:55;-3269.10;87.40
48994;DHT22;34804;49.214;12.276;2023-02-08T00:47:23;-3269.10;87.50
48994;DHT22;34804;49.214;12.276;2023-02-08T00:49:50;-3269.10;87.60
48994;DHT22;34804;49.214;12.276;2023-02-08T00:52:17;-3269.10;87.20
48994;DHT22;34804;49.214;12.276;2023-02-08T00:54:44;-3269.00;87.10
48994;DHT22;34804;49.214;12.276;2023-02-08T00:57:13;-3269.00;87.10
48994;DHT22;34804;49.214;12.276;2023-02-08T00:59:40;-3269.00;87.30
48994;DHT22;34804;49.214;12.276;2023-02-08T01:02:07;-3268.90;87.30
48994;DHT22;34804;49.214;12.276;2023-02-08T01:04:33;-3268.90;87.20
48994;DHT22;34804;49.214;12.276;2023-02-08T01:07:00;-3268.90;87.30
48994;DHT22;34804;49.214;12.276;2023-02-08T01:09:27;-3268.80;87.30
48994;DHT22;34804;49.214;12.276;2023-02-08T01:11:54;-3268.90;87.50
48994;DHT22;34804;49.214;12.276;2023-02-08T01:14:21;-3268.80;87.50
48994;DHT22;34804;49.214;12.276;2023-02-08T01:16:47;-3268.80;87.30
48994;DHT22;34804;49.214;12.276;2023-02-08T01:19:14;-3268.80;87.30
48994;DHT22;34804;49.214;12.276;2023-02-08T01:21:42;-3268.70;87.40
48994;DHT22;34804;49.214;12.276;2023-02-08T01:24:10;-3268.70;87.30
48994;DHT22;34804;49.214;12.276;2023-02-08T01:26:37;-3268.80;87.20
48994;DHT22;34804;49.214;12.276;2023-02-08T01:29:05;-3268.80;87.00
48994;DHT22;34804;49.214;12.276;2023-02-08T01:31:34;-3268.70;87.00
48994;DHT22;34804;49.214;12.276;2023-02-08T01:34:01;-3268.70;87.10
48994;DHT22;34804;49.214;12.276;2023-02-08T01:36:30;-3268.70;86.80
48994;DHT22;34804;49.214;12.276;2023-02-08T01:38:57;-3268.60;86.80
48994;DHT22;34804;49.214;12.276;2023-02-08T01:41:30;-3268.60;86.50
48994;DHT22;34804;49.214;12.276;2023-02-08T01:46:41;-3268.50;86.90
48994;DHT22;34804;49.214;12.276;2023-02-08T01:49:31;-3268.60;86.50
48994;DHT22;34804;49.214;12.276;2023-02-08T01:52:04;-3268.60;86.30
48994;DHT22;34804;49.214;12.276;2023-02-08T01:54:35;-3268.60;86.40
48994;DHT22;34804;49.214;12.276;2023-02-08T01:57:04;-3268.60;86.20
48994;DHT22;34804;49.214;12.276;2023-02-08T01:59:39;-3268.50;86.10
48994;DHT22;34804;49.214;12.276;2023-02-08T02:02:10;-3268.40;86.30
48994;DHT22;34804;49.214;12.276;2023-02-08T02:04:37;-3268.40;86.60
48994;DHT22;34804;49.214;12.276;2023-02-08T02:07:05;-3268.50;86.90
48994;DHT22;34804;49.214;12.276;2023-02-08T02:12:12;-3268.40;86.90
48994;DHT22;34804;49.214;12.276;2023-02-08T02:14:40;-3268.40;87.30
48994;DHT22;34804;49.214;12.276;2023-02-08T02:17:10;-3268.40;87.30
48994;DHT22;34804;49.214;12.276;2023-02-08T02:20:08;-3268.40;87.50
48994;DHT22;34804;49.214;12.276;2023-02-08T02:25:46;-3268.50;87.20
48994;DHT22;34804;49.214;12.276;2023-02-08T02:28:47;-3268.40;86.00
48994;DHT22;34804;49.214;12.276;2023-02-08T02:31:58;-3268.30;86.10
48994;DHT22;34804;49.214;12.276;2023-02-08T02:35:02;-3268.30;86.40
48994;DHT22;34804;49.214;12.276;2023-02-08T02:37:43;-3268.30;86.50
48994;DHT22;34804;49.214;12.276;2023-02-08T02:40:18;-3268.30;86.80
48994;DHT22;34804;49.214;12.276;2023-02-08T02:51:45;-3268.10;86.20
48994;DHT22;34804;49.214;12.276;2023-02-08T02:54:25;-3268.10;86.60
48994;DHT22;34804;49.214;12.276;2023-02-08T02:56:57;-3268.10;86.50
48994;DHT22;34804;49.214;12.276;2023-02-08T02:59:27;-3268.10;86.50
48994;DHT22;34804;49.214;12.276;2023-02-08T03:01:54;-3268.10;86.70
48994;DHT22;34804;49.214;12.276;2023-02-08T03:07:24;-3268.10;86.50
48994;DHT22;34804;49.214;12.276;2023-02-08T03:13:03;-3268.10;86.50
48994;DHT22;34804;49.214;12.276;2023-02-08T03:24:32;-3268.00;86.70
48994;DHT22;34804;49.214;12.276;2023-02-08T03:30:19;-3267.90;87.00
48994;DHT22;34804;49.214;12.276;2023-02-08T03:33:02;-3267.90;86.80
48994;DHT22;34804;49.214;12.276;2023-02-08T03:35:49;-3267.90;86.90
48994;DHT22;34804;49.214;12.276;2023-02-08T03:38:24;-3267.90;86.60
48994;DHT22;34804;49.214;12.276;2023-02-08T03:40:51;-3268.00;86.20
48994;DHT22;34804;49.214;12.276;2023-02-08T03:43:30;-3268.00;85.70
48994;DHT22;34804;49.214;12.276;2023-02-08T03:46:06;-3268.00;85.20
48994;DHT22;34804;49.214;12.276;2023-02-08T03:48:38;-3267.90;85.70
48994;DHT22;34804;49.214;12.276;2023-02-08T03:51:07;-3267.90;85.20
48994;DHT22;34804;49.214;12.276;2023-02-08T03:53:36;-3267.80;85.20
48994;DHT22;34804;49.214;12.276;2023-02-08T03:56:12;-3267.80;85.60
48994;DHT22;34804;49.214;12.276;2023-02-08T03:59:00;-3267.70;86.00
48994;DHT22;34804;49.214;12.276;2023-02-08T04:01:37;-3267.70;86.50
48994;DHT22;34804;49.214;12.276;2023-02-08T04:04:07;-3267.70;86.50
48994;DHT22;34804;49.214;12.276;2023-02-08T04:06:34;-3267.60;86.40
48994;DHT22;34804;49.214;12.276;2023-02-08T04:09:00;-3267.60;86.30
48994;DHT22;34804;49.214;12.276;2023-02-08T04:11:27;-3267.60;86.30
48994;DHT22;34804;49.214;12.276;2023-02-08T04:13:54;-3267.50;86.40
48994;DHT22;34804;49.214;12.276;2023-02-08T04:16:21;-3267.50;86.40
48994;DHT22;34804;49.214;12.276;2023-02-08T04:18:47;-3267.50;86.40
48994;DHT22;34804;49.214;12.276;2023-02-08T04:21:15;-3267.40;86.40
48994;DHT22;34804;49.214;12.276;2023-02-08T04:23:42;-3267.40;86.60
48994;DHT22;34804;49.214;12.276;2023-02-08T04:26:09;-3267.40;86.60
48994;DHT22;34804;49.214;12.276;2023-02-08T04:28:36;-3267.40;86.70
48994;DHT22;34804;49.214;12.276;2023-02-08T04:31:03;-3267.50;86.60
48994;DHT22;34804;49.214;12.276;2023-02-08T04:33:30;-3267.50;86.40
48994;DHT22;34804;49.214;12.276;2023-02-08T04:35:56;-3267.40;86.70
48994;DHT22;34804;49.214;12.276;2023-02-08T04:38:23;-3267.50;86.50
48994;DHT22;34804;49.214;12.276;2023-02-08T04:40:50;-3267.30;86.40
48994;DHT22;34804;49.214;12.276;2023-02-08T04:43:16;-3267.40;86.50
48994;DHT22;34804;49.214;12.276;2023-02-08T04:45:43;-3267.20;86.50
48994;DHT22;34804;49.214;12.276;2023-02-08T04:48:10;-3267.30;86.70
48994;DHT22;34804;49.214;12.276;2023-02-08T04:50:37;-3267.30;86.60
48994;DHT22;34804;49.214;12.276;2023-02-08T04:53:05;-3267.30;86.50
48994;DHT22;34804;49.214;12.276;2023-02-08T04:55:32;-3267.20;86.30
48994;DHT22;34804;49.214;12.276;2023-02-08T04:57:59;-3267.20;86.50
48994;DHT22;34804;49.214;12.276;2023-02-08T05:00:26;-3267.20;86.40
48994;DHT22;34804;49.214;12.276;2023-02-08T05:02:55;-3267.20;86.50
48994;DHT22;34804;49.214;12.276;2023-02-08T05:05:26;-3267.10;85.90
48994;DHT22;34804;49.214;12.276;2023-02-08T05:07:54;-3267.10;86.20
48994;DHT22;34804;49.214;12.276;2023-02-08T05:10:21;-3267.10;86.00
48994;DHT22;34804;49.214;12.276;2023-02-08T05:12:48;-3267.10;86.20
48994;DHT22;34804;49.214;12.276;2023-02-08T05:15:14;-3267.20;86.10
48994;DHT22;34804;49.214;12.276;2023-02-08T05:17:41;-3267.10;85.70
48994;DHT22;34804;49.214;12.276;2023-02-08T05:20:09;-3267.10;85.40
48994;DHT22;34804;49.214;12.276;2023-02-08T05:22:36;-3267.10;85.50
48994;DHT22;34804;49.214;12.276;2023-02-08T05:25:04;-3267.10;85.40
48994;DHT22;34804;49.214;12.276;2023-02-08T05:27:33;-3267.00;85.30
48994;DHT22;34804;49.214;12.276;2023-02-08T05:30:00;-3267.00;85.90
48994;DHT22;34804;49.214;12.276;2023-02-08T05:32:27;-3267.00;85.90
48994;DHT22;34804;49.214;12.276;2023-02-08T05:34:54;-3267.10;86.30
48994;DHT22;34804;49.214;12.276;2023-02-08T05:37:20;-3267.20;85.80
48994;DHT22;34804;49.214;12.276;2023-02-08T05:39:47;-3267.20;85.50
48994;DHT22;34804;49.214;12.276;2023-02-08T05:42:14;-3267.10;85.50
48994;DHT22;34804;49.214;12.276;2023-02-08T05:44:41;-3267.10;85.80
48994;DHT22;34804;49.214;12.276;2023-02-08T05:47:07;-3267.10;85.60
48994;DHT22;34804;49.214;12.276;2023-02-08T05:49:34;-3267.10;85.30
48994;DHT22;34804;49.214;12.276;2023-02-08T05:52:01;-3267.10;85.50
48994;DHT22;34804;49.214;12.276;2023-02-08T05:54:28;-3267.00;85.20
48994;DHT22;34804;49.214;12.276;2023-02-08T05:56:54;-3267.10;85.40
48994;DHT22;34804;49.214;12.276;2023-02-08T05:59:21;-3267.00;85.50
48994;DHT22;34804;49.214;12.276;2023-02-08T06:01:48;-3267.00;85.60
48994;DHT22;34804;49.214;12.276;2023-02-08T06:04:15;-3267.00;85.70
48994;DHT22;34804;49.214;12.276;2023-02-08T06:06:41;-3267.00;85.60
48994;DHT22;34804;49.214;12.276;2023-02-08T06:09:08;-3267.00;85.40
48994;DHT22;34804;49.214;12.276;2023-02-08T06:11:35;-3267.00;85.50
48994;DHT22;34804;49.214;12.276;2023-02-08T06:14:03;-3266.90;85.60
48994;DHT22;34804;49.214;12.276;2023-02-08T06:16:30;-3266.90;86.00
48994;DHT22;34804;49.214;12.276;2023-02-08T06:18:57;-3267.00;86.00
48994;DHT22;34804;49.214;12.276;2023-02-08T06:21:24;-3267.10;85.70
48994;DHT22;34804;49.214;12.276;2023-02-08T06:23:50;-3266.90;85.00
48994;DHT22;34804;49.214;12.276;2023-02-08T06:26:17;-3266.90;84.90
48994;DHT22;34804;49.214;12.276;2023-02-08T06:28:44;-3266.90;85.10
48994;DHT22;34804;49.214;12.276;2023-02-08T06:31:11;-3266.90;85.50
48994;DHT22;34804;49.214;12.276;2023-02-08T06:33:38;-3266.90;86.00
48994;DHT22;34804;49.214;12.276;2023-02-08T06:36:05;-3266.90;85.80
48994;DHT22;34804;49.214;12.276;2023-02-08T06:38:32;-3267.00;85.70
48994;DHT22;34804;49.214;12.276;2023-02-08T06:40:58;-3266.90;85.80
48994;DHT22;34804;49.214;12.276;2023-02-08T06:43:25;-3267.00;85.90
48994;DHT22;34804;49.214;12.276;2023-02-08T06:45:52;-3267.00;85.40
48994;DHT22;34804;49.214;12.276;2023-02-08T06:48:19;-3267.00;85.20
48994;DHT22;34804;49.214;12.276;2023-02-08T06:50:50;-3267.00;85.20
48994;DHT22;34804;49.214;12.276;2023-02-08T06:53:17;-3267.00;85.30
48994;DHT22;34804;49.214;12.276;2023-02-08T06:55:47;-3267.00;85.40
48994;DHT22;34804;49.214;12.276;2023-02-08T06:58:14;-3267.00;85.30
48994;DHT22;34804;49.214;12.276;2023-02-08T07:00:41;-3267.00;85.50
48994;DHT22;34804;49.214;12.276;2023-02-08T07:03:08;-3267.00;85.50
48994;DHT22;34804;49.214;12.276;2023-02-08T07:05:35;-3267.00;85.50
48994;DHT22;34804;49.214;12.276;2023-02-08T07:08:03;-3267.10;85.80
48994;DHT22;34804;49.214;12.276;2023-02-08T07:10:31;-3267.20;85.80
48994;DHT22;34804;49.214;12.276;2023-02-08T07:12:57;-3267.20;86.10
48994;DHT22;34804;49.214;12.276;2023-02-08T07:15:24;-3267.40;85.90
48994;DHT22;34804;49.214;12.276;2023-02-08T07:17:51;-3267.50;85.80
48994;DHT22;34804;49.214;12.276;2023-02-08T07:20:18;-3267.50;85.80
48994;DHT22;34804;49.214;12.276;2023-02-08T07:22:44;-3267.50;85.10
48994;DHT22;34804;49.214;12.276;2023-02-08T07:25:11;-3267.50;85.00
48994;DHT22;34804;49.214;12.276;2023-02-08T07:27:38;-3267.50;85.30
48994;DHT22;34804;49.214;12.276;2023-02-08T07:30:05;-3267.70;85.70
48994;DHT22;34804;49.214;12.276;2023-02-08T07:32:34;-3267.80;85.40
48994;DHT22;34804;49.214;12.276;2023-02-08T07:35:01;-3267.90;85.30
48994;DHT22;34804;49.214;12.276;2023-02-08T07:37:28;-3267.90;85.70
48994;DHT22;34804;49.214;12.276;2023-02-08T07:39:55;-3268.10;85.70
48994;DHT22;34804;49.214;12.276;2023-02-08T07:42:22;-3268.10;84.90
48994;DHT22;34804;49.214;12.276;2023-02-08T07:44:49;-3268.10;85.10
48994;DHT22;34804;49.214;12.276;2023-02-08T07:47:16;-3268.10;85.60
48994;DHT22;34804;49.214;12.276;2023-02-08T07:49:43;-3268.20;85.80
48994;DHT22;34804;49.214;12.276;2023-02-08T07:52:10;-3268.30;86.00
48994;DHT22;34804;49.214;12.276;2023-02-08T07:54:36;-3268.40;85.80
48994;DHT22;34804;49.214;12.276;2023-02-08T07:57:03;-3268.50;86.00
48994;DHT22;34804;49.214;12.276;2023-02-08T07:59:30;-3268.60;86.00
48994;DHT22;34804;49.214;12.276;2023-02-08T08:01:57;-3268.60;85.90
48994;DHT22;34804;49.214;12.276;2023-02-08T08:04:24;-3268.70;86.30
48994;DHT22;34804;49.214;12.276;2023-02-08T08:06:50;-3268.90;86.70
48994;DHT22;34804;49.214;12.276;2023-02-08T08:09:19;-3269.10;86.60
48994;DHT22;34804;49.214;12.276;2023-02-08T08:11:46;-3269.20;86.00
48994;DHT22;34804;49.214;12.276;2023-02-08T08:14:12;-3269.30;86.20
48994;DHT22;34804;49.214;12.276;2023-02-08T08:16:39;-3269.40;86.20
48994;DHT22;34804;49.214;12.276;2023-02-08T08:19:07;-3269.50;86.60
48994;DHT22;34804;49.214;12.276;2023-02-08T08:21:34;-3269.70;86.40
48994;DHT22;34804;49.214;12.276;2023-02-08T08:24:01;-3269.80;86.30
48994;DHT22;34804;49.214;12.276;2023-02-08T08:26:28;-3269.90;86.40
48994;DHT22;34804;49.214;12.276;2023-02-08T08:28:55;-3270.10;86.20
48994;DHT22;34804;49.214;12.276;2023-02-08T08:31:22;-3270.20;86.20
48994;DHT22;34804;49.214;12.276;2023-02-08T08:33:49;-3270.20;86.30
48994;DHT22;34804;49.214;12.276;2023-02-08T08:36:16;-3270.50;86.40
48994;DHT22;34804;49.214;12.276;2023-02-08T08:38:42;-3270.50;86.40
48994;DHT22;34804;49.214;12.276;2023-02-08T08:41:14;-3270.60;85.70
48994;DHT22;34804;49.214;12.276;2023-02-08T08:43:43;-3270.60;86.00
48994;DHT22;34804;49.214;12.276;2023-02-08T08:46:10;-3270.70;86.10
48994;DHT22;34804;49.214;12.276;2023-02-08T08:48:37;-3270.90;86.10
48994;DHT22;34804;49.214;12.276;2023-02-08T08:51:05;-3270.90;85.50
48994;DHT22;34804;49.214;12.276;2023-02-08T08:53:32;-3271.00;86.40
48994;DHT22;34804;49.214;12.276;2023-02-08T08:55:59;-3271.20;86.20
48994;DHT22;34804;49.214;12.276;2023-02-08T08:58:26;-3271.30;86.30
48994;DHT22;34804;49.214;12.276;2023-02-08T09:00:55;-3271.50;86.10
48994;DHT22;34804;49.214;12.276;2023-02-08T09:03:23;-3271.70;86.00
48994;DHT22;34804;49.214;12.276;2023-02-08T09:05:50;-3271.80;84.80
48994;DHT22;34804;49.214;12.276;2023-02-08T09:08:17;-3272.00;84.70
48994;DHT22;34804;49.214;12.276;2023-02-08T09:10:44;-3272.10;83.70
48994;DHT22;34804;49.214;12.276;2023-02-08T09:13:11;-3272.20;83.60
48994;DHT22;34804;49.214;12.276;2023-02-08T09:15:45;-3272.30;83.00
48994;DHT22;34804;49.214;12.276;2023-02-08T09:18:12;-3272.50;82.90
48994;DHT22;34804;49.214;12.276;2023-02-08T09:20:39;-3272.70;82.90
48994;DHT22;34804;49.214;12.276;2023-02-08T09:23:07;-3272.60;80.90
48994;DHT22;34804;49.214;12.276;2023-02-08T09:25:35;-3272.80;81.80
48994;DHT22;34804;49.214;12.276;2023-02-08T09:28:02;-3272.90;81.60
48994;DHT22;34804;49.214;12.276;2023-02-08T09:30:29;-3273.10;81.60
48994;DHT22;34804;49.214;12.276;2023-02-08T09:32:56;-3273.00;80.70
48994;DHT22;34804;49.214;12.276;2023-02-08T09:35:23;-3273.10;80.80
48994;DHT22;34804;49.214;12.276;2023-02-08T09:37:52;-3273.10;80.60
48994;DHT22;34804;49.214;12.276;2023-02-08T09:40:29;-3273.00;80.20
48994;DHT22;34804;49.214;12.276;2023-02-08T09:43:47;-3273.10;80.70
48994;DHT22;34804;49.214;12.276;2023-02-08T09:46:20;-3273.30;80.20
48994;DHT22;34804;49.214;12.276;2023-02-08T09:48:50;-3273.40;79.30
48994;DHT22;34804;49.214;12.276;2023-02-08T09:51:47;-3273.50;79.90
48994;DHT22;34804;49.214;12.276;2023-02-08T09:54:21;-3273.70;79.50
48994;DHT22;34804;49.214;12.276;2023-02-08T09:56:50;-3273.80;79.70
48994;DHT22;34804;49.214;12.276;2023-02-08T09:59:27;-3274.00;78.80
48994;DHT22;34804;49.214;12.276;2023-02-08T10:05:03;-3274.20;77.90
48994;DHT22;34804;49.214;12.276;2023-02-08T10:07:31;-3274.30;77.80
48994;DHT22;34804;49.214;12.276;2023-02-08T10:10:03;-3274.50;78.90
48994;DHT22;34804;49.214;12.276;2023-02-08T10:12:40;-3274.70;77.30
48994;DHT22;34804;49.214;12.276;2023-02-08T10:15:32;-3275.00;78.60
48994;DHT22;34804;49.214;12.276;2023-02-08T10:18:12;-3275.10;78.50
48994;DHT22;34804;49.214;12.276;2023-02-08T10:23:25;-3275.40;77.20
48994;DHT22;34804;49.214;12.276;2023-02-08T10:26:10;-3275.50;75.90
48994;DHT22;34804;49.214;12.276;2023-02-08T10:28:59;-3275.90;76.90
48994;DHT22;34804;49.214;12.276;2023-02-08T10:34:29;-3276.40;72.90
48994;DHT22;34804;49.214;12.276;2023-02-08T10:36:59;-3276.50;72.90
48994;DHT22;34804;49.214;12.276;2023-02-08T10:39:32;-3276.70;71.60
48994;DHT22;34804;49.214;12.276;2023-02-08T10:42:02;-3276.70;71.00
48994;DHT22;34804;49.214;12.276;2023-02-08T10:44:40;0.00;71.50
48994;DHT22;34804;49.214;12.276;2023-02-08T10:50:03;0.30;69.90
48994;DHT22;34804;49.214;12.276;2023-02-08T10:52:32;0.30;70.00
48994;DHT22;34804;49.214;12.276;2023-02-08T10:54:59;0.40;69.30
48994;DHT22;34804;49.214;12.276;2023-02-08T10:57:30;0.50;68.80
48994;DHT22;34804;49.214;12.276;2023-02-08T11:00:28;0.60;68.00
48994;DHT22;34804;49.214;12.276;2023-02-08T11:03:01;0.60;67.30
48994;DHT22;34804;49.214;12.276;2023-02-08T11:05:34;0.80;68.50
48994;DHT22;34804;49.214;12.276;2023-02-08T11:08:13;0.90;67.40
48994;DHT22;34804;49.214;12.276;2023-02-08T11:13:35;1.10;65.80
48994;DHT22;34804;49.214;12.276;2023-02-08T11:16:05;1.10;65.80
48994;DHT22;34804;49.214;12.276;2023-02-08T11:18:36;1.20;65.10
48994;DHT22;34804;49.214;12.276;2023-02-08T11:21:06;1.40;65.30
48994;DHT22;34804;49.214;12.276;2023-02-08T11:23:39;1.60;64.70
48994;DHT22;34804;49.214;12.276;2023-02-08T11:26:35;1.80;64.40
48994;DHT22;34804;49.214;12.276;2023-02-08T11:31:35;2.00;62.80
48994;DHT22;34804;49.214;12.276;2023-02-08T11:34:10;2.10;62.20
48994;DHT22;34804;49.214;12.276;2023-02-08T11:36:44;2.20;62.40
48994;DHT22;34804;49.214;12.276;2023-02-08T11:39:43;2.40;60.50
48994;DHT22;34804;49.214;12.276;2023-02-08T11:42:24;2.50;60.70
48994;DHT22;34804;49.214;12.276;2023-02-08T11:44:53;2.60;61.40
48994;DHT22;34804;49.214;12.276;2023-02-08T11:47:29;2.80;61.00
48994;DHT22;34804;49.214;12.276;2023-02-08T11:50:00;2.80;59.80
48994;DHT22;34804;49.214;12.276;2023-02-08T11:52:33;2.90;58.80
48994;DHT22;34804;49.214;12.276;2023-02-08T11:58:19;3.30;58.10
48994;DHT22;34804;49.214;12.276;2023-02-08T12:01:04;3.40;57.70
48994;DHT22;34804;49.214;12.276;2023-02-08T12:03:36;3.50;55.10
48994;DHT22;34804;49.214;12.276;2023-02-08T12:06:26;3.40;55.20
48994;DHT22;34804;49.214;12.276;2023-02-08T12:09:08;3.70;55.10
48994;DHT22;34804;49.214;12.276;2023-02-08T12:11:44;3.80;53.50
48994;DHT22;34804;49.214;12.276;2023-02-08T12:17:17;4.00;52.00
48994;DHT22;34804;49.214;12.276;2023-02-08T12:20:12;4.00;51.00
48994;DHT22;34804;49.214;12.276;2023-02-08T12:25:43;4.30;49.90
48994;DHT22;34804;49.214;12.276;2023-02-08T12:36:49;5.10;49.10
48994;DHT22;34804;49.214;12.276;2023-02-08T12:53:30;8.50;40.80
48994;DHT22;34804;49.214;12.276;2023-02-08T12:56:03;8.00;39.50
48994;DHT22;34804;49.214;12.276;2023-02-08T12:58:37;7.60;41.20
48994;DHT22;34804;49.214;12.276;2023-02-08T13:01:10;7.40;41.30
48994;DHT22;34804;49.214;12.276;2023-02-08T13:06:18;8.80;40.20
48994;DHT22;34804;49.214;12.276;2023-02-08T13:09:07;9.80;38.00
48994;DHT22;34804;49.214;12.276;2023-02-08T13:12:01;10.50;37.00
48994;DHT22;34804;49.214;12.276;2023-02-08T13:14:36;11.50;35.10
48994;DHT22;34804;49.214;12.276;2023-02-08T13:17:15;11.50;34.40
48994;DHT22;34804;49.214;12.276;2023-02-08T13:19:50;11.60;33.70
48994;DHT22;34804;49.214;12.276;2023-02-08T13:22:31;11.10;33.90
48994;DHT22;34804;49.214;12.276;2023-02-08T13:24:59;9.50;34.00
48994;DHT22;34804;49.214;12.276;2023-02-08T13:27:34;8.90;37.10
48994;DHT22;34804;49.214;12.276;2023-02-08T13:30:01;8.90;36.40
48994;DHT22;34804;49.214;12.276;2023-02-08T13:32:39;8.60;37.10
48994;DHT22;34804;49.214;12.276;2023-02-08T13:35:20;9.80;37.20
48994;DHT22;34804;49.214;12.276;2023-02-08T13:37:51;10.40;35.60
48994;DHT22;34804;49.214;12.276;2023-02-08T13:40:25;10.20;36.20
48994;DHT22;34804;49.214;12.276;2023-02-08T13:43:07;10.80;35.80
48994;DHT22;34804;49.214;12.276;2023-02-08T13:45:39;10.90;33.70
48994;DHT22;34804;49.214;12.276;2023-02-08T13:48:11;10.80;35.00
48994;DHT22;34804;49.214;12.276;2023-02-08T13:50:50;11.20;35.30
48994;DHT22;34804;49.214;12.276;2023-02-08T13:56:08;12.20;33.70
48994;DHT22;34804;49.214;12.276;2023-02-08T14:01:20;12.40;32.60
48994;DHT22;34804;49.214;12.276;2023-02-08T14:06:57;12.40;32.30
48994;DHT22;34804;49.214;12.276;2023-02-08T14:12:23;11.80;33.50
48994;DHT22;34804;49.214;12.276;2023-02-08T14:17:33;11.30;33.20
48994;DHT22;34804;49.214;12.276;2023-02-08T14:20:06;11.30;34.30
48994;DHT22;34804;49.214;12.276;2023-02-08T14:22:39;11.50;33.90
48994;DHT22;34804;49.214;12.276;2023-02-08T14:30:54;11.40;34.50
48994;DHT22;34804;49.214;12.276;2023-02-08T14:33:25;10.90;35.00
48994;DHT22;34804;49.214;12.276;2023-02-08T14:36:05;10.70;35.80
48994;DHT22;34804;49.214;12.276;2023-02-08T14:38:50;10.70;35.60
48994;DHT22;34804;49.214;12.276;2023-02-08T14:50:14;10.80;34.60
48994;DHT22;34804;49.214;12.276;2023-02-08T14:52:54;10.80;34.70
48994;DHT22;34804;49.214;12.276;2023-02-08T14:55:26;10.30;34.50
48994;DHT22;34804;49.214;12.276;2023-02-08T14:57:54;10.40;34.80
48994;DHT22;34804;49.214;12.276;2023-02-08T15:00:25;10.00;36.60
48994;DHT22;34804;49.214;12.276;2023-02-08T15:02:55;9.80;36.10
48994;DHT22;34804;49.214;12.276;2023-02-08T15:05:24;9.70;36.70
48994;DHT22;34804;49.214;12.276;2023-02-08T15:07:53;9.70;36.40
48994;DHT22;34804;49.214;12.276;2023-02-08T15:10:23;9.90;36.10
48994;DHT22;34804;49.214;12.276;2023-02-08T15:12:53;9.40;37.60
48994;DHT22;34804;49.214;12.276;2023-02-08T15:17:57;8.40;38.20
48994;DHT22;34804;49.214;12.276;2023-02-08T15:20:31;7.90;39.70
48994;DHT22;34804;49.214;12.276;2023-02-08T15:25:32;6.20;43.30
48994;DHT22;34804;49.214;12.276;2023-02-08T15:28:02;5.80;44.90
48994;DHT22;34804;49.214;12.276;2023-02-08T15:30:35;5.40;46.80
48994;DHT22;34804;49.214;12.276;2023-02-08T15:33:12;4.80;48.10
48994;DHT22;34804;49.214;12.276;2023-02-08T15:35:41;5.00;49.10
48994;DHT22;34804;49.214;12.276;2023-02-08T15:38:15;4.50;49.60
48994;DHT22;34804;49.214;12.276;2023-02-08T15:41:08;4.30;50.50
48994;DHT22;34804;49.214;12.276;2023-02-08T15:43:36;4.10;50.90
48994;DHT22;34804;49.214;12.276;2023-02-08T15:46:06;4.20;50.90
48994;DHT22;34804;49.214;12.276;2023-02-08T15:48:43;4.10;50.80
48994;DHT22;34804;49.214;12.276;2023-02-08T15:51:12;3.20;53.20
48994;DHT22;34804;49.214;12.276;2023-02-08T15:53:43;2.90;54.10
48994;DHT22;34804;49.214;12.276;2023-02-08T15:56:25;2.50;55.30
48994;DHT22;34804;49.214;12.276;2023-02-08T15:59:06;2.20;56.70
48994;DHT22;34804;49.214;12.276;2023-02-08T16:01:33;1.80;58.40
48994;DHT22;34804;49.214;12.276;2023-02-08T16:04:03;1.40;59.60
48994;DHT22;34804;49.214;12.276;2023-02-08T16:06:44;1.20;60.10
48994;DHT22;34804;49.214;12.276;2023-02-08T16:09:16;0.90;61.10
48994;DHT22;34804;49.214;12.276;2023-02-08T16:11:46;0.80;61.40
48994;DHT22;34804;49.214;12.276;2023-02-08T16:14:17;0.60;62.30
48994;DHT22;34804;49.214;12.276;2023-02-08T16:16:47;0.40;62.90
48994;DHT22;34804;49.214;12.276;2023-02-08T16:19:26;0.40;63.40
48994;DHT22;34804;49.214;12.276;2023-02-08T16:21:56;0.30;63.70
48994;DHT22;34804;49.214;12.276;2023-02-08T16:24:43;0.30;63.70
48994;DHT22;34804;49.214;12.276;2023-02-08T16:27:26;0.20;64.70
48994;DHT22;34804;49.214;12.276;2023-02-08T16:29:54;0.10;65.10
48994;DHT22;34804;49.214;12.276;2023-02-08T16:32:30;0.00;65.50
48994;DHT22;34804;49.214;12.276;2023-02-08T16:34:58;0.00;65.70
48994;DHT22;34804;49.214;12.276;2023-02-08T16:37:34;-3276.70;66.80
48994;DHT22;34804;49.214;12.276;2023-02-08T16:42:46;-3276.50;66.50
48994;DHT22;34804;49.214;12.276;2023-02-08T16:45:15;-3276.40;66.30
48994;DHT22;34804;49.214;12.276;2023-02-08T16:47:46;-3276.30;66.60
48994;DHT22;34804;49.214;12.276;2023-02-08T16:50:25;-3276.20;67.70
48994;DHT22;34804;49.214;12.276;2023-02-08T16:53:02;-3276.10;68.10
48994;DHT22;34804;49.214;12.276;2023-02-08T16:55:31;-3276.10;68.00
48994;DHT22;34804;49.214;12.276;2023-02-08T16:57:58;-3276.00;68.80
48994;DHT22;34804;49.214;12.276;2023-02-08T17:00:29;-3276.00;69.10
48994;DHT22;34804;49.214;12.276;2023-02-08T17:02:57;-3275.90;69.50
48994;DHT22;34804;49.214;12.276;2023-02-08T17:05:27;-3275.70;70.00
48994;DHT22;34804;49.214;12.276;2023-02-08T17:07:55;-3275.70;70.20
48994;DHT22;34804;49.214;12.276;2023-02-08T17:12:49;-3275.60;70.60
48994;DHT22;34804;49.214;12.276;2023-02-08T17:15:16;-3275.60;70.70
48994;DHT22;34804;49.214;12.276;2023-02-08T17:17:43;-3275.60;70.90
48994;DHT22;34804;49.214;12.276;2023-02-08T17:20:29;-3275.50;71.00